Time;durP1;ratioP1;P1;durP2;ratioP2;P2;SDS_P1;SDS_P2;PMS_P1;PMS_P2;Temp;Humidity;BMP_temperature;BMP_pressure;BME280_temperature;BME280_humidity;BME280_pressure;Samples;Min_cycle;Max_cycle;Signal;HPM_P1;HPM_P2
2023/08/21 00:00:00;;;;;;;;;;;;;;;25.28;46.27;94965.38;4177953;28;20280;-77
2023/08/21 00:02:01;;;;;;;;;;;;;;;25.30;46.26;94965.94;4175659;28;19928;-76
2023/08/21 00:04:03;;;;;;;;;;;;;;;25.32;46.25;94963.84;4176889;28;20343;-79
2023/08/21 00:06:07;;;;;;;;;;;;;;;25.31;46.02;94965.69;4177283;28;20027;-77
2023/08/21 00:08:09;;;;;;;;;;;;;;;25.34;46.08;94970.56;4174487;28;19932;-78
2023/08/21 00:10:12;;;;;;;;;;;;;;;25.37;46.14;94957.72;4166440;28;19958;-78
2023/08/21 00:12:14;;;;;;;;;;;;;;;25.40;46.12;94962.59;4166974;28;20315;-78
2023/08/21 00:17:13;;;;;;;;;;;;;;;25.36;46.32;94961.47;4172331;28;20015;-77
2023/08/21 00:19:15;;;;;;;;;;;;;;;25.28;46.41;94960.81;4172005;28;20003;-76
2023/08/21 00:21:16;;;;;;;;;;;;;;;25.13;46.72;94963.25;4174756;28;19928;-78
2023/08/21 00:23:18;;;;;;;;;;;;;;;24.79;47.43;94957.84;4169011;28;20023;-79
2023/08/21 00:25:20;;;;;;;;;;;;;;;24.25;48.73;94957.38;4172396;28;20047;-78
2023/08/21 00:27:23;;;;;;;;;;;;;;;23.89;50.20;94964.66;4192166;28;20356;-78
2023/08/21 00:29:25;;;;;;;;;;;;;;;23.57;51.31;94957.00;4177926;28;19920;-78
2023/08/21 00:31:27;;;;;;;;;;;;;;;23.49;51.50;94960.03;4188060;28;19946;-77
2023/08/21 00:33:30;;;;;;;;;;;;;;;23.60;51.09;94955.75;4162452;28;19976;-77
2023/08/21 00:35:31;;;;;;;;;;;;;;;23.80;50.97;94958.88;4175007;28;19925;-78
2023/08/21 00:37:33;;;;;;;;;;;;;;;24.01;50.18;94960.09;4175008;28;19921;-78
2023/08/21 00:39:35;;;;;;;;;;;;;;;24.18;49.64;94959.34;4162467;28;19921;-78
2023/08/21 00:41:38;;;;;;;;;;;;;;;24.34;49.57;94963.97;4173523;28;19995;-77
2023/08/21 00:43:39;;;;;;;;;;;;;;;24.46;49.21;94970.09;4182621;28;19920;-78
2023/08/21 00:45:42;;;;;;;;;;;;;;;24.57;48.93;94957.72;4175448;28;19921;-78
2023/08/21 00:47:44;;;;;;;;;;;;;;;24.64;48.64;94969.09;4178167;28;19945;-75
2023/08/21 00:49:45;;;;;;;;;;;;;;;24.70;48.25;94965.47;4179549;28;19975;-78
2023/08/21 00:51:48;;;;;;;;;;;;;;;24.76;48.10;94970.91;4168315;28;19951;-78
2023/08/21 00:53:50;;;;;;;;;;;;;;;24.78;48.04;94972.31;4172445;28;19932;-78
2023/08/21 00:55:51;;;;;;;;;;;;;;;24.79;48.00;94968.56;4179468;28;19986;-78
2023/08/21 00:57:53;;;;;;;;;;;;;;;24.82;47.93;94970.75;4179196;28;19924;-77
2023/08/21 00:59:55;;;;;;;;;;;;;;;24.83;47.93;94969.72;4160582;28;19983;-78
2023/08/21 01:01:56;;;;;;;;;;;;;;;24.83;48.19;94968.91;4177966;28;19935;-76
2023/08/21 01:03:59;;;;;;;;;;;;;;;24.83;48.26;94975.06;4156300;28;20329;-77
2023/08/21 01:06:01;;;;;;;;;;;;;;;24.86;48.22;94974.56;4169299;28;19974;-77
2023/08/21 01:08:05;;;;;;;;;;;;;;;24.89;48.22;94974.09;4157505;28;20012;-80
2023/08/21 01:10:13;;;;;;;;;;;;;;;24.92;47.97;94973.59;4157828;28;20312;-78
2023/08/21 01:12:22;;;;;;;;;;;;;;;24.93;48.05;94977.94;4179349;28;19995;-77
2023/08/21 01:14:42;;;;;;;;;;;;;;;24.94;48.08;94970.69;4179743;28;20344;-76
2023/08/21 01:16:44;;;;;;;;;;;;;;;24.95;48.32;94974.97;4176846;28;20000;-79
2023/08/21 01:18:48;;;;;;;;;;;;;;;24.91;48.15;94974.69;4157090;28;19934;-77
2023/08/21 01:20:53;;;;;;;;;;;;;;;24.89;48.33;94974.09;4153224;28;20256;-77
2023/08/21 01:22:55;;;;;;;;;;;;;;;24.88;48.44;94975.13;4176157;28;19927;-78
2023/08/21 01:24:56;;;;;;;;;;;;;;;24.88;48.25;94974.34;4189436;28;19930;-77
2023/08/21 01:26:58;;;;;;;;;;;;;;;24.87;48.20;94970.84;4169300;28;19979;-77
2023/08/21 01:29:00;;;;;;;;;;;;;;;24.86;48.54;94974.56;4156035;28;19957;-77
2023/08/21 01:31:03;;;;;;;;;;;;;;;24.87;48.41;94975.41;4152687;28;20267;-77
2023/08/21 01:33:06;;;;;;;;;;;;;;;24.88;48.33;94977.81;4189138;28;19928;-76
2023/08/21 01:35:07;;;;;;;;;;;;;;;24.89;48.16;94975.97;4199411;28;19976;-76
2023/08/21 01:37:09;;;;;;;;;;;;;;;24.86;48.38;94974.56;4180441;28;19964;-76
2023/08/21 01:39:11;;;;;;;;;;;;;;;24.88;48.34;94977.00;4156221;28;20482;-76
2023/08/21 01:41:14;;;;;;;;;;;;;;;24.85;48.11;94978.31;4177372;28;19921;-77
2023/08/21 01:43:15;;;;;;;;;;;;;;;24.81;48.43;94977.16;4194415;28;20142;-78
2023/08/21 01:45:17;;;;;;;;;;;;;;;24.74;48.86;94979.19;4192126;28;20008;-77
2023/08/21 01:47:18;;;;;;;;;;;;;;;24.73;48.67;94973.00;4203646;28;19984;-76
2023/08/21 01:49:20;;;;;;;;;;;;;;;24.74;48.36;94971.16;4165341;28;20337;-74
2023/08/21 01:51:22;;;;;;;;;;;;;;;24.73;48.03;94969.53;4168714;28;19935;-75
2023/08/21 01:53:23;;;;;;;;;;;;;;;24.72;48.09;94974.06;4180730;28;19975;-76
2023/08/21 01:55:26;;;;;;;;;;;;;;;24.70;48.39;94975.38;4161141;28;19964;-76
2023/08/21 01:57:29;;;;;;;;;;;;;;;24.67;48.58;94981.19;4189315;28;20341;-76
2023/08/21 01:59:31;;;;;;;;;;;;;;;24.66;48.29;94974.22;4179619;28;19960;-76
2023/08/21 02:01:33;;;;;;;;;;;;;;;24.64;48.37;94968.28;4144273;28;20265;-77
2023/08/21 02:03:35;;;;;;;;;;;;;;;24.63;48.53;94962.13;4168530;28;20268;-77
2023/08/21 02:05:39;;;;;;;;;;;;;;;24.61;48.37;94966.06;4168905;28;20074;-78
2023/08/21 02:07:41;;;;;;;;;;;;;;;24.59;48.31;94970.88;4172844;28;19925;-79
2023/08/21 02:09:42;;;;;;;;;;;;;;;24.56;48.45;94968.69;4163319;28;19921;-77
2023/08/21 02:11:44;;;;;;;;;;;;;;;24.55;48.71;94967.06;4164552;28;20002;-77
2023/08/21 02:13:46;;;;;;;;;;;;;;;24.54;48.60;94966.22;4165268;28;20356;-76
2023/08/21 02:15:47;;;;;;;;;;;;;;;24.56;48.55;94972.16;4161417;28;20382;-77
2023/08/21 02:17:49;;;;;;;;;;;;;;;24.58;48.54;94971.94;4164837;28;19935;-76
2023/08/21 02:19:50;;;;;;;;;;;;;;;24.58;48.32;94967.38;4165101;28;19960;-78
2023/08/21 02:21:52;;;;;;;;;;;;;;;24.49;48.83;94966.16;4170414;28;21045;-78
2023/08/21 02:23:55;;;;;;;;;;;;;;;24.40;49.45;94973.72;4168286;28;19927;-76
2023/08/21 02:25:56;;;;;;;;;;;;;;;24.40;49.28;94973.72;4175317;28;19990;-79
2023/08/21 02:27:58;;;;;;;;;;;;;;;24.40;48.94;94971.03;4164849;28;20419;-78
2023/08/21 02:30:00;;;;;;;;;;;;;;;24.36;49.14;94977.91;4175813;28;19998;-78
2023/08/21 02:32:01;;;;;;;;;;;;;;;24.25;49.49;94963.53;4160395;28;20415;-77
2023/08/21 02:34:03;;;;;;;;;;;;;;;24.14;50.00;94966.25;4176235;28;19986;-78
2023/08/21 02:36:07;;;;;;;;;;;;;;;23.96;50.11;94962.66;4161337;28;19936;-78
2023/08/21 02:38:08;;;;;;;;;;;;;;;23.85;50.81;94961.63;4177430;28;19936;-80
2023/08/21 02:40:10;;;;;;;;;;;;;;;23.88;50.82;94966.53;4178002;28;19932;-77
2023/08/21 02:42:11;;;;;;;;;;;;;;;23.94;50.67;94966.63;4186999;28;19921;-79
2023/08/21 02:44:13;;;;;;;;;;;;;;;23.95;50.46;94962.91;4169185;28;19920;-79
2023/08/21 02:46:15;;;;;;;;;;;;;;;23.96;50.35;94956.50;4176510;28;19928;-76
2023/08/21 02:48:17;;;;;;;;;;;;;;;24.01;50.48;94964.66;4176054;28;19921;-78
2023/08/21 02:50:18;;;;;;;;;;;;;;;24.02;50.37;94967.06;4178198;28;20305;-78
2023/08/21 02:52:20;;;;;;;;;;;;;;;24.02;50.48;94964.41;4178273;28;20288;-76
2023/08/21 02:54:22;;;;;;;;;;;;;;;24.05;50.71;94969.28;4174187;28;20356;-77
2023/08/21 02:56:23;;;;;;;;;;;;;;;24.07;50.93;94961.84;4175564;28;20159;-77
2023/08/21 02:58:25;;;;;;;;;;;;;;;24.11;51.00;94967.50;4177441;28;19960;-77
2023/08/21 03:00:27;;;;;;;;;;;;;;;24.10;51.07;94966.72;4132154;28;19980;-78
2023/08/21 03:02:28;;;;;;;;;;;;;;;24.08;51.15;94966.13;4169604;28;19925;-77
2023/08/21 03:04:30;;;;;;;;;;;;;;;24.07;50.79;94961.84;4163703;28;19980;-78
2023/08/21 03:06:32;;;;;;;;;;;;;;;24.09;51.19;94967.78;4173926;28;20331;-78
2023/08/21 03:08:33;;;;;;;;;;;;;;;24.11;51.21;94975.53;4175792;28;19942;-79
2023/08/21 03:10:36;;;;;;;;;;;;;;;24.14;50.87;94979.63;4160080;28;20268;-76
2023/08/21 03:12:38;;;;;;;;;;;;;;;24.15;51.14;94976.69;4159593;28;20411;-76
2023/08/21 03:14:41;;;;;;;;;;;;;;;24.18;51.20;94978.09;4167351;28;19921;-77
2023/08/21 03:16:42;;;;;;;;;;;;;;;24.21;50.91;94989.13;4162385;28;19960;-76
2023/08/21 03:18:55;;;;;;;;;;;;;;;24.16;51.21;94980.22;4176215;28;20019;-77
2023/08/21 03:20:57;;;;;;;;;;;;;;;24.06;51.27;94986.97;4154754;28;19925;-77
2023/08/21 03:22:58;;;;;;;;;;;;;;;24.02;51.46;94985.81;4166747;28;20203;-77
2023/08/21 03:25:02;;;;;;;;;;;;;;;24.01;51.49;94986.06;4166584;28;19972;-78
2023/08/21 03:27:04;;;;;;;;;;;;;;;23.99;51.33;94986.28;4175792;28;19925;-77
2023/08/21 03:29:07;;;;;;;;;;;;;;;23.97;51.40;94984.91;4165382;28;19925;-76
2023/08/21 03:31:08;;;;;;;;;;;;;;;23.94;51.69;94983.53;4177564;28;20003;-78
2023/08/21 03:33:10;;;;;;;;;;;;;;;23.95;51.53;94987.81;4178030;28;20444;-76
2023/08/21 03:35:11;;;;;;;;;;;;;;;23.92;51.57;94991.78;4166392;28;19925;-77
2023/08/21 03:37:13;;;;;;;;;;;;;;;23.94;51.24;94996.91;4153580;28;19931;-77
2023/08/21 03:39:15;;;;;;;;;;;;;;;23.90;51.24;94995.75;4179956;28;20023;-78
2023/08/21 03:41:17;;;;;;;;;;;;;;;23.88;51.26;94993.28;4163591;28;20301;-79
2023/08/21 03:43:21;;;;;;;;;;;;;;;23.89;51.09;94983.41;4179480;28;19921;-77
2023/08/21 03:45:22;;;;;;;;;;;;;;;23.89;51.48;94997.56;4160570;28;19924;-79
2023/08/21 03:47:24;;;;;;;;;;;;;;;23.87;51.60;94991.66;4180162;28;19920;-76
2023/08/21 03:49:26;;;;;;;;;;;;;;;23.87;51.54;94988.97;4163558;28;20049;-77
2023/08/21 03:51:27;;;;;;;;;;;;;;;23.87;51.38;94991.66;4160719;28;20354;-77
2023/08/21 03:53:29;;;;;;;;;;;;;;;23.89;51.16;94992.22;4179944;28;19920;-78
2023/08/21 03:55:30;;;;;;;;;;;;;;;23.91;51.07;94982.09;4179407;28;19995;-79
2023/08/21 03:57:33;;;;;;;;;;;;;;;23.94;51.14;94982.69;4180013;28;19931;-78
2023/08/21 03:59:34;;;;;;;;;;;;;;;23.92;51.19;94985.63;4180944;28;19920;-78
2023/08/21 04:01:36;;;;;;;;;;;;;;;23.92;51.18;94986.41;4178974;28;20023;-77
2023/08/21 04:03:40;;;;;;;;;;;;;;;23.96;51.29;94986.75;4162281;28;19943;-79
2023/08/21 04:05:42;;;;;;;;;;;;;;;24.03;51.24;94989.31;4177310;28;19924;-78
2023/08/21 04:07:43;;;;;;;;;;;;;;;24.08;51.38;94990.22;4178680;28;19967;-77
2023/08/21 04:09:45;;;;;;;;;;;;;;;24.11;51.00;94994.28;4169845;28;19921;-80
2023/08/21 04:11:46;;;;;;;;;;;;;;;24.04;50.50;94989.06;4150528;28;19959;-80
2023/08/21 04:13:48;;;;;;;;;;;;;;;23.92;50.67;94999.00;4178259;28;19924;-78
2023/08/21 04:15:50;;;;;;;;;;;;;;;23.67;51.04;95000.00;4153430;28;19925;-79
2023/08/21 04:17:52;;;;;;;;;;;;;;;23.19;52.01;95003.72;4133178;28;19960;-80
2023/08/21 04:19:55;;;;;;;;;;;;;;;22.83;53.16;95005.47;4177605;28;20352;-80
2023/08/21 04:21:56;;;;;;;;;;;;;;;22.60;54.00;95000.03;4171755;28;20881;-80
2023/08/21 04:23:58;;;;;;;;;;;;;;;22.59;54.10;95003.78;4163815;28;19920;-79
2023/08/21 04:26:01;;;;;;;;;;;;;;;22.72;53.84;95010.78;4146661;28;20024;-79
2023/08/21 04:28:03;;;;;;;;;;;;;;;22.66;53.85;95009.81;4146872;28;19922;-78
2023/08/21 04:30:05;;;;;;;;;;;;;;;22.82;53.96;95006.53;4163497;28;19921;-78
2023/08/21 04:32:07;;;;;;;;;;;;;;;22.83;53.77;95012.66;4164130;28;19921;-78
2023/08/21 04:34:09;;;;;;;;;;;;;;;22.90;53.40;95013.38;4164912;28;20315;-81
2023/08/21 04:36:14;;;;;;;;;;;;;;;23.02;53.42;95013.44;4164537;28;20305;-78
2023/08/21 04:38:16;;;;;;;;;;;;;;;23.13;52.99;95009.97;4185051;28;19925;-79
2023/08/21 04:40:20;;;;;;;;;;;;;;;23.26;52.24;95015.13;4159990;28;19925;-79
2023/08/21 04:42:24;;;;;;;;;;;;;;;23.43;51.92;95003.75;4179921;28;19959;-80
2023/08/21 04:44:25;;;;;;;;;;;;;;;23.57;51.61;95009.66;4177799;28;19924;-79
2023/08/21 04:46:27;;;;;;;;;;;;;;;23.71;51.64;95011.88;4178325;28;19989;-78
2023/08/21 04:48:28;;;;;;;;;;;;;;;23.77;51.37;95017.34;4177006;28;19993;-79
2023/08/21 04:50:31;;;;;;;;;;;;;;;23.85;51.18;95017.00;4179929;28;19991;-78
2023/08/21 04:52:32;;;;;;;;;;;;;;;23.97;51.00;95017.81;4178491;28;20102;-79
2023/08/21 04:54:34;;;;;;;;;;;;;;;24.11;50.48;95016.53;4179829;28;19928;-78
2023/08/21 04:56:36;;;;;;;;;;;;;;;24.06;50.59;95016.41;4161637;28;19976;-80
2023/08/21 04:58:37;;;;;;;;;;;;;;;24.04;50.88;95020.38;4176713;28;21208;-80
2023/08/21 05:00:39;;;;;;;;;;;;;;;23.99;50.93;95020.28;4171102;28;20256;-78
2023/08/21 05:02:42;;;;;;;;;;;;;;;23.84;50.86;95031.44;4180317;28;20011;-80
2023/08/21 05:04:43;;;;;;;;;;;;;;;23.72;51.36;95028.72;4170367;28;20012;-78
2023/08/21 05:06:45;;;;;;;;;;;;;;;23.72;50.91;95031.41;4182395;28;19920;-79
2023/08/21 05:08:47;;;;;;;;;;;;;;;23.57;51.69;95026.53;4183237;28;19925;-79
2023/08/21 05:10:50;;;;;;;;;;;;;;;23.58;51.57;95025.50;4181569;28;19921;-79
2023/08/21 05:12:51;;;;;;;;;;;;;;;23.68;51.46;95039.09;4161731;28;20022;-79
2023/08/21 05:14:54;;;;;;;;;;;;;;;23.68;51.85;95032.91;4178995;28;19924;-78
2023/08/21 05:16:55;;;;;;;;;;;;;;;23.68;51.81;95039.09;4166544;28;19928;-77
2023/08/21 05:18:57;;;;;;;;;;;;;;;23.66;51.54;95041.19;4170417;28;20027;-78
2023/08/21 05:20:58;;;;;;;;;;;;;;;23.66;51.76;95040.34;4178506;28;19924;-80
2023/08/21 05:23:00;;;;;;;;;;;;;;;23.65;51.88;95044.09;4161678;28;20345;-78
2023/08/21 05:25:02;;;;;;;;;;;;;;;23.70;51.83;95042.38;4179545;28;20015;-79
2023/08/21 05:27:04;;;;;;;;;;;;;;;23.82;51.49;95037.03;4174917;28;20354;-77
2023/08/21 05:29:06;;;;;;;;;;;;;;;24.03;51.21;95045.50;4148266;28;20137;-78
2023/08/21 05:31:07;;;;;;;;;;;;;;;24.19;50.91;95043.97;4177091;28;20412;-77
2023/08/21 05:33:09;;;;;;;;;;;;;;;24.24;50.51;95036.03;4163861;28;19936;-79
2023/08/21 05:35:11;;;;;;;;;;;;;;;24.29;50.11;95039.63;4170659;28;20371;-80
2023/08/21 05:37:12;;;;;;;;;;;;;;;24.43;50.11;95039.38;4167325;28;19940;-83
2023/08/21 05:39:14;;;;;;;;;;;;;;;24.56;49.74;95033.75;4167620;28;20289;-80
2023/08/21 05:41:15;;;;;;;;;;;;;;;24.70;49.50;95037.00;4186280;28;20015;-81
2023/08/21 05:43:17;;;;;;;;;;;;;;;24.80;49.08;95031.81;4180499;28;19928;-80
2023/08/21 05:45:19;;;;;;;;;;;;;;;24.92;48.90;95039.78;4170938;28;20585;-77
2023/08/21 05:47:20;;;;;;;;;;;;;;;25.01;48.58;95034.84;4167607;28;19927;-79
2023/08/21 05:49:22;;;;;;;;;;;;;;;25.10;48.31;95028.88;4178255;28;20387;-81
2023/08/21 05:51:23;;;;;;;;;;;;;;;25.20;47.61;95030.13;4175390;28;20350;-80
2023/08/21 05:53:25;;;;;;;;;;;;;;;25.30;47.38;95025.75;4163956;28;19928;-80
2023/08/21 05:55:27;;;;;;;;;;;;;;;25.46;47.06;95028.66;4177286;28;20008;-80
2023/08/21 05:57:28;;;;;;;;;;;;;;;25.59;47.24;95031.00;4178348;28;20411;-83
2023/08/21 05:59:31;;;;;;;;;;;;;;;25.72;46.78;95028.00;4177879;28;19924;-79
2023/08/21 06:01:32;;;;;;;;;;;;;;;25.73;46.51;95026.13;4176152;28;19929;-80
2023/08/21 06:03:34;;;;;;;;;;;;;;;25.59;46.40;95019.47;4162037;28;20273;-79
2023/08/21 06:05:36;;;;;;;;;;;;;;;25.58;46.43;95026.72;4159067;28;19921;-80
2023/08/21 06:07:37;;;;;;;;;;;;;;;25.52;46.42;95033.06;4177288;28;20301;-82
2023/08/21 06:09:39;;;;;;;;;;;;;;;25.46;46.11;95032.16;4157420;28;20384;-83
2023/08/21 06:11:42;;;;;;;;;;;;;;;25.27;46.83;95028.91;4176175;28;19968;-79
2023/08/21 06:13:44;;;;;;;;;;;;;;;25.19;46.71;95031.97;4177384;28;20028;-76
2023/08/21 06:15:46;;;;;;;;;;;;;;;25.28;46.84;95033.22;4170217;28;19921;-80
2023/08/21 06:17:47;;;;;;;;;;;;;;;25.42;46.58;95036.38;4179758;28;19920;-78
2023/08/21 06:19:50;;;;;;;;;;;;;;;25.55;46.34;95032.56;4178915;28;20368;-78
2023/08/21 06:21:52;;;;;;;;;;;;;;;25.74;45.75;95033.13;4162608;28;19925;-78
2023/08/21 06:23:54;;;;;;;;;;;;;;;25.96;45.36;95030.50;4145656;28;20008;-81
2023/08/21 06:25:55;;;;;;;;;;;;;;;26.19;44.73;95029.47;4163683;28;19921;-80
2023/08/21 06:27:57;;;;;;;;;;;;;;;26.41;44.18;95029.47;4164470;28;19964;-81
2023/08/21 06:30:01;;;;;;;;;;;;;;;26.61;43.99;95030.81;4168431;28;19921;-77
2023/08/21 06:32:03;;;;;;;;;;;;;;;26.64;43.50;95039.19;4168013;28;20031;-81
2023/08/21 06:34:04;;;;;;;;;;;;;;;26.73;43.32;95029.59;4166876;28;19975;-80
2023/08/21 06:36:06;;;;;;;;;;;;;;;26.59;42.90;95041.81;4177454;28;20344;-80
2023/08/21 06:38:08;;;;;;;;;;;;;;;26.44;43.16;95042.44;4148608;28;20389;-81
2023/08/21 06:40:09;;;;;;;;;;;;;;;26.47;43.13;95039.22;4165791;28;19995;-79
2023/08/21 06:42:11;;;;;;;;;;;;;;;26.65;43.04;95037.31;4166405;28;19996;-78
2023/08/21 06:44:12;;;;;;;;;;;;;;;26.65;43.27;95040.00;4172178;28;20395;-77
2023/08/21 06:46:14;;;;;;;;;;;;;;;26.51;43.23;95044.91;4176997;28;19927;-82
2023/08/21 06:48:16;;;;;;;;;;;;;;;26.60;43.57;95040.75;4183590;28;20364;-80
2023/08/21 06:50:18;;;;;;;;;;;;;;;26.60;43.75;95040.75;4172290;28;20267;-80
2023/08/21 06:52:19;;;;;;;;;;;;;;;26.46;44.17;95039.50;4175457;28;19924;-79
2023/08/21 06:54:21;;;;;;;;;;;;;;;26.45;44.26;95041.34;4160291;28;19921;-78
2023/08/21 06:56:23;;;;;;;;;;;;;;;26.58;44.15;95042.88;4166880;28;19925;-82
2023/08/21 06:58:24;;;;;;;;;;;;;;;26.73;44.34;95044.94;4170609;28;19925;-81
2023/08/21 07:00:26;;;;;;;;;;;;;;;26.82;43.82;95042.59;4179557;28;19920;-78
2023/08/21 07:02:28;;;;;;;;;;;;;;;26.82;44.51;95040.72;4171855;28;19921;-78
2023/08/21 07:04:29;;;;;;;;;;;;;;;26.84;44.23;95040.47;4179314;28;19925;-76
2023/08/21 07:06:31;;;;;;;;;;;;;;;26.76;44.17;95039.88;4177437;28;19921;-79
2023/08/21 07:08:33;;;;;;;;;;;;;;;26.74;44.75;95041.19;4189143;28;19925;-82
2023/08/21 07:10:38;;;;;;;;;;;;;;;26.59;44.82;95044.50;4175542;28;19997;-80
2023/08/21 07:12:39;;;;;;;;;;;;;;;26.64;44.65;95033.81;4179655;28;20311;-79
2023/08/21 07:14:41;;;;;;;;;;;;;;;26.79;44.65;95037.75;4177295;28;20046;-78
2023/08/21 07:16:43;;;;;;;;;;;;;;;27.07;43.84;95037.47;4177751;28;19977;-75
2023/08/21 07:18:44;;;;;;;;;;;;;;;27.33;43.53;95040.44;4190943;28;20014;-80
2023/08/21 07:20:46;;;;;;;;;;;;;;;27.43;42.92;95037.03;4184810;28;19929;-78
2023/08/21 07:22:48;;;;;;;;;;;;;;;27.40;42.84;95040.22;4167122;28;20367;-80
2023/08/21 07:24:49;;;;;;;;;;;;;;;27.53;42.32;95043.31;4165102;28;20008;-78
2023/08/21 07:26:51;;;;;;;;;;;;;;;27.57;41.71;95033.63;4176981;28;19964;-78
2023/08/21 07:28:54;;;;;;;;;;;;;;;27.69;41.90;95041.53;4178151;28;19925;-78
2023/08/21 07:30:56;;;;;;;;;;;;;;;27.85;41.57;95034.41;4167863;28;20264;-80
2023/08/21 07:32:58;;;;;;;;;;;;;;;27.97;41.20;95026.94;4145003;28;19921;-79
2023/08/21 07:35:01;;;;;;;;;;;;;;;27.98;41.04;95031.28;4167510;28;19983;-79
2023/08/21 07:37:03;;;;;;;;;;;;;;;27.93;41.05;95036.59;4176837;28;20010;-81
2023/08/21 07:39:04;;;;;;;;;;;;;;;28.14;40.67;95032.16;4176555;28;19943;-78
2023/08/21 07:41:07;;;;;;;;;;;;;;;28.30;40.87;95030.34;4177253;28;19921;-81
2023/08/21 07:43:13;;;;;;;;;;;;;;;28.48;40.19;95031.81;4178475;28;19993;-78
2023/08/21 07:45:15;;;;;;;;;;;;;;;28.70;39.63;95030.81;4175244;28;19925;-77
2023/08/21 07:47:16;;;;;;;;;;;;;;;28.70;39.54;95033.50;4189859;28;20272;-78
2023/08/21 07:49:18;;;;;;;;;;;;;;;28.45;39.10;95026.09;4179324;28;19921;-80
2023/08/21 07:51:19;;;;;;;;;;;;;;;28.28;39.94;95027.09;4165549;28;19921;-77
2023/08/21 07:53:21;;;;;;;;;;;;;;;28.35;39.84;95032.25;4164659;28;19978;-79
2023/08/21 07:55:23;;;;;;;;;;;;;;;28.43;39.40;95029.06;4175003;28;19933;-78
2023/08/21 07:57:25;;;;;;;;;;;;;;;28.54;39.72;95021.84;4171905;28;19921;-78
2023/08/21 07:59:27;;;;;;;;;;;;;;;28.72;39.20;95025.97;4178798;28;20320;-80
2023/08/21 08:01:29;;;;;;;;;;;;;;;28.77;39.20;95023.28;4178368;28;19921;-79
2023/08/21 08:03:31;;;;;;;;;;;;;;;28.73;39.25;95028.38;4158919;28;19940;-80
2023/08/21 08:05:33;;;;;;;;;;;;;;;28.95;39.18;95022.78;4168715;28;20023;-80
2023/08/21 08:07:35;;;;;;;;;;;;;;;29.03;38.92;95017.94;4178633;28;20387;-81
2023/08/21 08:09:37;;;;;;;;;;;;;;;28.94;38.94;95015.75;4181959;28;20027;-79
2023/08/21 08:11:39;;;;;;;;;;;;;;;28.93;38.69;95018.72;4148785;28;19925;-79
2023/08/21 08:13:41;;;;;;;;;;;;;;;29.17;38.26;95010.97;4177086;28;19920;-77
2023/08/21 08:15:44;;;;;;;;;;;;;;;29.29;37.74;95014.22;4172013;28;20214;-80
2023/08/21 08:17:45;;;;;;;;;;;;;;;29.12;37.88;95017.16;4178405;28;20520;-79
2023/08/21 08:19:47;;;;;;;;;;;;;;;28.99;37.93;95015.75;4176500;28;19995;-81
2023/08/21 08:21:49;;;;;;;;;;;;;;;28.90;38.11;95016.56;4167194;28;19931;-79
2023/08/21 08:23:51;;;;;;;;;;;;;;;29.18;37.84;95013.38;4170239;28;19921;-81
2023/08/21 08:25:53;;;;;;;;;;;;;;;29.47;37.67;95014.75;4163782;28;20296;-78
2023/08/21 08:27:54;;;;;;;;;;;;;;;29.78;37.26;95012.88;4182247;28;20285;-79
2023/08/21 08:29:56;;;;;;;;;;;;;;;29.98;36.83;95004.72;4166427;28;20345;-82
2023/08/21 08:31:57;;;;;;;;;;;;;;;30.19;36.54;95010.88;4147407;28;19921;-79
2023/08/21 08:33:59;;;;;;;;;;;;;;;30.36;36.31;95012.50;4176571;28;19952;-81
2023/08/21 08:36:01;;;;;;;;;;;;;;;30.34;35.45;95009.25;4179293;28;19976;-83
2023/08/21 08:38:03;;;;;;;;;;;;;;;30.40;35.69;95003.53;4164650;28;19925;-79
2023/08/21 08:40:07;;;;;;;;;;;;;;;30.56;35.45;94995.38;4170112;28;19929;-81
2023/08/21 08:42:08;;;;;;;;;;;;;;;30.68;35.45;95000.47;4174094;28;19921;-80
2023/08/21 08:44:10;;;;;;;;;;;;;;;30.80;35.36;94992.78;4179498;28;19920;-80
2023/08/21 08:46:12;;;;;;;;;;;;;;;30.82;34.86;94991.44;4155233;28;20306;-78
2023/08/21 08:48:13;;;;;;;;;;;;;;;30.31;35.52;94998.97;4171698;28;19925;-78
2023/08/21 08:50:15;;;;;;;;;;;;;;;30.06;35.70;94994.44;4153212;28;19921;-79
2023/08/21 08:52:18;;;;;;;;;;;;;;;29.97;35.81;94988.81;4182484;28;19924;-81
2023/08/21 08:54:21;;;;;;;;;;;;;;;30.07;35.12;94994.16;4177417;28;19960;-80
2023/08/21 08:56:23;;;;;;;;;;;;;;;30.29;35.05;94984.97;4146249;28;19926;-83
2023/08/21 08:58:25;;;;;;;;;;;;;;;30.30;34.77;94995.47;4135589;28;19922;-81
2023/08/21 09:00:27;;;;;;;;;;;;;;;30.16;35.21;94984.44;4147441;28;20412;-82
2023/08/21 09:02:30;;;;;;;;;;;;;;;30.35;35.07;94992.78;4171337;28;20260;-80
2023/08/21 09:04:31;;;;;;;;;;;;;;;30.38;35.11;94996.81;4153443;28;20451;-81
2023/08/21 09:06:33;;;;;;;;;;;;;;;30.33;34.99;94991.41;4160192;28;20020;-79
2023/08/21 09:08:35;;;;;;;;;;;;;;;30.31;35.42;94985.47;4176174;28;20272;-80
2023/08/21 09:10:38;;;;;;;;;;;;;;;30.37;35.23;94990.59;4169939;28;19925;-78
2023/08/21 09:12:40;;;;;;;;;;;;;;;30.16;34.76;94983.63;4173513;28;20310;-77
2023/08/21 09:14:45;;;;;;;;;;;;;;;30.24;34.59;94990.34;4176487;28;20249;-80
2023/08/21 09:17:00;;;;;;;;;;;;;;;30.42;34.68;94987.84;4165112;28;20507;-80
2023/08/21 09:19:02;;;;;;;;;;;;;;;30.50;34.23;94981.09;4170513;28;19948;-80
2023/08/21 09:21:04;;;;;;;;;;;;;;;30.39;34.39;94979.50;4175755;28;20327;-80
2023/08/21 09:23:06;;;;;;;;;;;;;;;30.33;34.54;94977.88;4146428;28;19944;-78
2023/08/21 09:25:10;;;;;;;;;;;;;;;30.59;34.18;94982.09;4146521;28;19921;-78
2023/08/21 09:27:13;;;;;;;;;;;;;;;30.83;34.12;94971.41;4165242;28;19980;-83
2023/08/21 09:29:14;;;;;;;;;;;;;;;31.01;33.75;94967.25;4164633;28;19921;-81
2023/08/21 09:31:16;;;;;;;;;;;;;;;31.25;33.72;94973.88;4149268;28;19921;-79
2023/08/21 09:33:22;;;;;;;;;;;;;;;31.43;33.60;94974.00;4150043;28;20040;-79
2023/08/21 09:35:24;;;;;;;;;;;;;;;31.59;32.66;94966.53;4155128;28;19983;-79
2023/08/21 09:37:27;;;;;;;;;;;;;;;31.42;32.97;94963.44;4178459;28;19986;-80
2023/08/21 09:39:32;;;;;;;;;;;;;;;31.28;32.95;94965.16;4162102;28;19927;-82
2023/08/21 09:41:34;;;;;;;;;;;;;;;31.07;32.62;94964.53;4179831;28;19947;-82
2023/08/21 09:43:41;;;;;;;;;;;;;;;31.02;32.92;94960.78;4179052;28;20007;-78
2023/08/21 09:45:42;;;;;;;;;;;;;;;31.27;33.15;94952.75;4180786;28;20343;-79
2023/08/21 09:47:45;;;;;;;;;;;;;;;31.50;32.42;94956.63;4162860;28;19921;-78
2023/08/21 09:49:46;;;;;;;;;;;;;;;31.78;32.17;94955.00;4180268;28;19944;-77
2023/08/21 09:51:48;;;;;;;;;;;;;;;31.93;31.20;94954.03;4163094;28;20309;-84
2023/08/21 09:53:50;;;;;;;;;;;;;;;32.00;31.64;94955.31;4178643;28;19921;-79
2023/08/21 09:55:52;;;;;;;;;;;;;;;31.90;31.39;94950.00;4170730;28;19927;-77
2023/08/21 09:57:58;;;;;;;;;;;;;;;31.45;31.82;94945.84;4159495;28;19931;-79
2023/08/21 10:00:00;;;;;;;;;;;;;;;31.37;31.94;94947.25;4154537;28;19922;-78
2023/08/21 10:02:01;;;;;;;;;;;;;;;31.68;32.12;94944.25;4187213;28;19990;-76
2023/08/21 10:04:03;;;;;;;;;;;;;;;31.49;31.78;94941.47;4175301;28;20005;-79
2023/08/21 10:06:06;;;;;;;;;;;;;;;31.47;31.29;94947.19;4172941;28;20371;-80
2023/08/21 10:08:07;;;;;;;;;;;;;;;30.93;31.48;94942.72;4191536;28;19908;-80
2023/08/21 10:10:09;;;;;;;;;;;;;;;31.16;31.66;94925.75;4164421;28;19928;-80
2023/08/21 10:12:11;;;;;;;;;;;;;;;31.18;31.63;94931.69;4160777;28;19997;-77
2023/08/21 10:14:13;;;;;;;;;;;;;;;31.19;31.50;94924.38;4149239;28;19992;-80
2023/08/21 10:16:14;;;;;;;;;;;;;;;31.04;32.04;94930.75;4193255;28;19925;-77
2023/08/21 10:18:20;;;;;;;;;;;;;;;31.09;31.91;94929.91;4188227;28;19972;-79
2023/08/21 10:20:25;;;;;;;;;;;;;;;31.22;31.82;94927.31;4180173;28;19920;-78
2023/08/21 10:22:56;;;;;;;;;;;;;;;31.57;30.81;94920.00;4182909;28;19932;-80
2023/08/21 10:24:59;;;;;;;;;;;;;;;31.52;31.31;94922.75;4160602;28;19948;-81
2023/08/21 10:27:01;;;;;;;;;;;;;;;31.80;30.94;94921.13;4179776;28;19924;-80
2023/08/21 10:29:06;;;;;;;;;;;;;;;32.11;30.64;94915.34;4156940;28;19922;-80
2023/08/21 10:31:30;;;;;;;;;;;;;;;31.83;30.76;94917.81;4149748;28;20648;-77
2023/08/21 10:33:47;;;;;;;;;;;;;;;31.84;30.54;94911.31;4151146;28;20040;-80
2023/08/21 10:35:50;;;;;;;;;;;;;;;31.90;30.49;94905.84;4160824;28;19925;-79
2023/08/21 10:38:08;;;;;;;;;;;;;;;31.87;30.24;94906.41;4164832;28;20253;-80
2023/08/21 10:40:12;;;;;;;;;;;;;;;31.65;30.54;94905.03;4176114;28;20287;-79